sensor_id;sensor_type;location;lat;lon;timestamp;P1;durP1;ratioP1;P2;durP2;ratioP2
2824;SDS011;1420;51.324;12.344;2023-06-04T00:02:04;1999.90;;;999.90;;
2824;SDS011;1420;51.324;12.344;2023-06-04T00:04:32;1999.90;;;999.90;;
2824;SDS011;1420;51.324;12.344;2023-06-04T00:06:59;1999.90;;;999.90;;
2824;SDS011;1420;51.324;12.344;2023-06-04T00:09:26;926.64;;;499.50;;
2824;SDS011;1420;51.324;12.344;2023-06-04T00:11:53;1297.44;;;684.40;;
2824;SDS011;1420;51.324;12.344;2023-06-04T00:14:21;1999.90;;;999.90;;
2824;SDS011;1420;51.324;12.344;2023-06-04T00:16:48;1999.90;;;999.90;;
2824;SDS011;1420;51.324;12.344;2023-06-04T00:19:16;1999.90;;;999.90;;
2824;SDS011;1420;51.324;12.344;2023-06-04T00:21:44;1014.34;;;593.08;;
2824;SDS011;1420;51.324;12.344;2023-06-04T00:24:11;371.50;;;336.86;;
2824;SDS011;1420;51.324;12.344;2023-06-04T00:26:39;1384.26;;;766.86;;
2824;SDS011;1420;51.324;12.344;2023-06-04T00:29:06;489.56;;;444.08;;
2824;SDS011;1420;51.324;12.344;2023-06-04T00:31:33;1409.62;;;791.06;;
2824;SDS011;1420;51.324;12.344;2023-06-04T00:34:01;632.28;;;578.22;;
2824;SDS011;1420;51.324;12.344;2023-06-04T00:36:28;1495.84;;;871.06;;
2824;SDS011;1420;51.324;12.344;2023-06-04T00:38:56;596.78;;;546.16;;
2824;SDS011;1420;51.324;12.344;2023-06-04T00:41:23;1190.04;;;757.98;;
2824;SDS011;1420;51.324;12.344;2023-06-04T00:43:50;703.44;;;647.16;;
2824;SDS011;1420;51.324;12.344;2023-06-04T00:46:24;1523.42;;;897.64;;
2824;SDS011;1420;51.324;12.344;2023-06-04T00:48:52;800.06;;;738.56;;
2824;SDS011;1420;51.324;12.344;2023-06-04T00:51:19;760.88;;;701.46;;
2824;SDS011;1420;51.324;12.344;2023-06-04T00:53:48;836.34;;;769.88;;
2824;SDS011;1420;51.324;12.344;2023-06-04T00:56:17;723.08;;;666.26;;
2824;SDS011;1420;51.324;12.344;2023-06-04T00:58:45;849.26;;;786.58;;
2824;SDS011;1420;51.324;12.344;2023-06-04T01:01:15;827.12;;;762.80;;
2824;SDS011;1420;51.324;12.344;2023-06-04T01:03:55;771.46;;;713.56;;
2824;SDS011;1420;51.324;12.344;2023-06-04T01:06:33;1334.54;;;895.02;;
2824;SDS011;1420;51.324;12.344;2023-06-04T01:09:03;915.42;;;847.24;;
2824;SDS011;1420;51.324;12.344;2023-06-04T01:11:30;993.86;;;918.16;;
2824;SDS011;1420;51.324;12.344;2023-06-04T01:14:00;970.96;;;897.16;;
2824;SDS011;1420;51.324;12.344;2023-06-04T01:16:29;1011.96;;;936.82;;
2824;SDS011;1420;51.324;12.344;2023-06-04T01:18:57;1013.36;;;939.00;;
2824;SDS011;1420;51.324;12.344;2023-06-04T01:21:24;1027.62;;;949.74;;
2824;SDS011;1420;51.324;12.344;2023-06-04T01:23:54;986.02;;;912.62;;
2824;SDS011;1420;51.324;12.344;2023-06-04T01:26:27;992.04;;;920.84;;
2824;SDS011;1420;51.324;12.344;2023-06-04T01:28:55;990.86;;;920.30;;
2824;SDS011;1420;51.324;12.344;2023-06-04T01:31:22;1021.56;;;948.08;;
2824;SDS011;1420;51.324;12.344;2023-06-04T01:33:51;989.60;;;917.16;;
2824;SDS011;1420;51.324;12.344;2023-06-04T01:36:17;999.54;;;925.30;;
2824;SDS011;1420;51.324;12.344;2023-06-04T01:38:45;1013.70;;;939.12;;
2824;SDS011;1420;51.324;12.344;2023-06-04T01:41:12;1048.04;;;973.26;;
2824;SDS011;1420;51.324;12.344;2023-06-04T01:43:39;1080.42;;;999.10;;
2824;SDS011;1420;51.324;12.344;2023-06-04T01:46:07;1044.44;;;969.62;;
2824;SDS011;1420;51.324;12.344;2023-06-04T01:48:34;1047.34;;;970.46;;
2824;SDS011;1420;51.324;12.344;2023-06-04T01:51:02;1015.22;;;941.28;;
2824;SDS011;1420;51.324;12.344;2023-06-04T01:53:29;1054.08;;;977.10;;
2824;SDS011;1420;51.324;12.344;2023-06-04T01:55:56;986.10;;;911.02;;
2824;SDS011;1420;51.324;12.344;2023-06-04T01:58:23;1049.48;;;972.86;;
2824;SDS011;1420;51.324;12.344;2023-06-04T02:00:50;1031.22;;;956.10;;
2824;SDS011;1420;51.324;12.344;2023-06-04T02:03:18;1020.52;;;944.34;;
2824;SDS011;1420;51.324;12.344;2023-06-04T02:05:45;1060.48;;;986.30;;
2824;SDS011;1420;51.324;12.344;2023-06-04T02:08:14;1040.90;;;963.92;;
2824;SDS011;1420;51.324;12.344;2023-06-04T02:10:41;1014.16;;;940.62;;
2824;SDS011;1420;51.324;12.344;2023-06-04T02:13:08;999.54;;;927.88;;
2824;SDS011;1420;51.324;12.344;2023-06-04T02:15:36;1049.26;;;973.92;;
2824;SDS011;1420;51.324;12.344;2023-06-04T02:20:37;987.70;;;917.12;;
2824;SDS011;1420;51.324;12.344;2023-06-04T02:23:04;970.90;;;900.14;;
2824;SDS011;1420;51.324;12.344;2023-06-04T02:25:32;1052.14;;;976.40;;
2824;SDS011;1420;51.324;12.344;2023-06-04T02:28:00;1017.92;;;943.90;;
2824;SDS011;1420;51.324;12.344;2023-06-04T02:30:27;1017.30;;;944.32;;
2824;SDS011;1420;51.324;12.344;2023-06-04T02:32:55;1059.34;;;983.58;;
2824;SDS011;1420;51.324;12.344;2023-06-04T02:35:23;1020.18;;;944.18;;
2824;SDS011;1420;51.324;12.344;2023-06-04T02:37:50;1035.16;;;959.32;;
2824;SDS011;1420;51.324;12.344;2023-06-04T02:40:18;997.76;;;925.44;;
2824;SDS011;1420;51.324;12.344;2023-06-04T02:42:45;1031.96;;;955.26;;
2824;SDS011;1420;51.324;12.344;2023-06-04T02:45:12;1000.22;;;925.24;;
2824;SDS011;1420;51.324;12.344;2023-06-04T02:47:39;1024.44;;;952.00;;
2824;SDS011;1420;51.324;12.344;2023-06-04T02:50:07;1052.40;;;975.26;;
2824;SDS011;1420;51.324;12.344;2023-06-04T02:52:34;979.98;;;908.28;;
2824;SDS011;1420;51.324;12.344;2023-06-04T02:55:01;1002.20;;;932.40;;
2824;SDS011;1420;51.324;12.344;2023-06-04T02:57:30;1041.56;;;967.46;;
2824;SDS011;1420;51.324;12.344;2023-06-04T02:59:58;1033.94;;;962.34;;
2824;SDS011;1420;51.324;12.344;2023-06-04T03:02:26;1004.58;;;935.92;;
2824;SDS011;1420;51.324;12.344;2023-06-04T03:04:53;996.02;;;922.64;;
2824;SDS011;1420;51.324;12.344;2023-06-04T03:07:20;1004.32;;;934.22;;
2824;SDS011;1420;51.324;12.344;2023-06-04T03:09:47;996.04;;;925.20;;
2824;SDS011;1420;51.324;12.344;2023-06-04T03:12:14;1008.16;;;939.62;;
2824;SDS011;1420;51.324;12.344;2023-06-04T03:14:42;998.38;;;929.92;;
2824;SDS011;1420;51.324;12.344;2023-06-04T03:17:09;1004.30;;;938.20;;
2824;SDS011;1420;51.324;12.344;2023-06-04T03:19:37;1002.64;;;928.10;;
2824;SDS011;1420;51.324;12.344;2023-06-04T03:22:04;1012.02;;;940.48;;
2824;SDS011;1420;51.324;12.344;2023-06-04T03:24:34;1002.74;;;930.40;;
2824;SDS011;1420;51.324;12.344;2023-06-04T03:27:00;989.50;;;919.26;;
2824;SDS011;1420;51.324;12.344;2023-06-04T03:29:28;1001.34;;;932.88;;
2824;SDS011;1420;51.324;12.344;2023-06-04T03:31:55;983.30;;;913.64;;
2824;SDS011;1420;51.324;12.344;2023-06-04T03:34:22;989.34;;;920.82;;
2824;SDS011;1420;51.324;12.344;2023-06-04T03:36:53;998.64;;;926.98;;
2824;SDS011;1420;51.324;12.344;2023-06-04T03:39:20;977.62;;;908.08;;
2824;SDS011;1420;51.324;12.344;2023-06-04T03:41:48;1012.82;;;940.72;;
2824;SDS011;1420;51.324;12.344;2023-06-04T03:44:16;994.22;;;924.28;;
2824;SDS011;1420;51.324;12.344;2023-06-04T03:46:43;984.38;;;915.46;;
2824;SDS011;1420;51.324;12.344;2023-06-04T03:49:10;982.02;;;912.42;;
2824;SDS011;1420;51.324;12.344;2023-06-04T03:51:37;1026.72;;;952.88;;
2824;SDS011;1420;51.324;12.344;2023-06-04T03:54:05;1017.74;;;945.06;;
2824;SDS011;1420;51.324;12.344;2023-06-04T03:56:33;1013.00;;;941.96;;
2824;SDS011;1420;51.324;12.344;2023-06-04T03:59:01;1055.88;;;981.00;;
2824;SDS011;1420;51.324;12.344;2023-06-04T04:01:28;1016.72;;;947.04;;
2824;SDS011;1420;51.324;12.344;2023-06-04T04:03:55;1021.00;;;950.80;;
2824;SDS011;1420;51.324;12.344;2023-06-04T04:06:22;993.20;;;923.42;;
2824;SDS011;1420;51.324;12.344;2023-06-04T04:08:49;1006.26;;;934.80;;
2824;SDS011;1420;51.324;12.344;2023-06-04T04:11:17;1018.40;;;944.34;;
2824;SDS011;1420;51.324;12.344;2023-06-04T04:13:44;1011.32;;;938.98;;
2824;SDS011;1420;51.324;12.344;2023-06-04T04:16:12;1021.82;;;953.22;;
2824;SDS011;1420;51.324;12.344;2023-06-04T04:18:41;1020.40;;;945.90;;
2824;SDS011;1420;51.324;12.344;2023-06-04T04:21:08;1031.98;;;961.14;;
2824;SDS011;1420;51.324;12.344;2023-06-04T04:23:37;957.14;;;891.16;;
2824;SDS011;1420;51.324;12.344;2023-06-04T04:26:02;1013.40;;;942.32;;
2824;SDS011;1420;51.324;12.344;2023-06-04T04:28:30;1056.00;;;979.78;;
2824;SDS011;1420;51.324;12.344;2023-06-04T04:30:57;1018.48;;;946.18;;
2824;SDS011;1420;51.324;12.344;2023-06-04T04:33:24;1028.16;;;957.02;;
2824;SDS011;1420;51.324;12.344;2023-06-04T04:35:51;1027.82;;;955.42;;
2824;SDS011;1420;51.324;12.344;2023-06-04T04:38:19;1043.16;;;967.74;;
2824;SDS011;1420;51.324;12.344;2023-06-04T04:40:46;1051.28;;;975.90;;
2824;SDS011;1420;51.324;12.344;2023-06-04T04:43:14;1032.32;;;959.98;;
2824;SDS011;1420;51.324;12.344;2023-06-04T04:45:42;1032.74;;;957.68;;
2824;SDS011;1420;51.324;12.344;2023-06-04T04:48:09;994.90;;;923.90;;
2824;SDS011;1420;51.324;12.344;2023-06-04T04:50:36;1004.28;;;933.04;;
2824;SDS011;1420;51.324;12.344;2023-06-04T04:53:03;1001.52;;;931.60;;
2824;SDS011;1420;51.324;12.344;2023-06-04T04:55:31;974.68;;;908.24;;
2824;SDS011;1420;51.324;12.344;2023-06-04T04:57:58;1027.42;;;956.54;;
2824;SDS011;1420;51.324;12.344;2023-06-04T05:00:25;982.80;;;913.20;;
2824;SDS011;1420;51.324;12.344;2023-06-04T05:02:52;992.98;;;925.18;;
2824;SDS011;1420;51.324;12.344;2023-06-04T05:05:19;1050.14;;;972.52;;
2824;SDS011;1420;51.324;12.344;2023-06-04T05:07:47;1034.80;;;958.46;;
2824;SDS011;1420;51.324;12.344;2023-06-04T05:10:14;1001.70;;;928.10;;
2824;SDS011;1420;51.324;12.344;2023-06-04T05:12:50;1040.50;;;965.92;;
2824;SDS011;1420;51.324;12.344;2023-06-04T05:15:24;1038.60;;;960.26;;
2824;SDS011;1420;51.324;12.344;2023-06-04T05:17:50;1007.10;;;935.40;;
2824;SDS011;1420;51.324;12.344;2023-06-04T05:20:18;1005.12;;;931.46;;
2824;SDS011;1420;51.324;12.344;2023-06-04T05:22:45;1033.94;;;958.90;;
2824;SDS011;1420;51.324;12.344;2023-06-04T05:25:13;1013.68;;;939.32;;
2824;SDS011;1420;51.324;12.344;2023-06-04T05:27:40;1023.40;;;949.14;;
2824;SDS011;1420;51.324;12.344;2023-06-04T05:30:08;1022.60;;;946.92;;
2824;SDS011;1420;51.324;12.344;2023-06-04T05:32:35;1025.22;;;948.34;;
2824;SDS011;1420;51.324;12.344;2023-06-04T05:35:02;1067.00;;;987.96;;
2824;SDS011;1420;51.324;12.344;2023-06-04T05:37:29;1056.78;;;978.18;;
2824;SDS011;1420;51.324;12.344;2023-06-04T05:39:57;1128.72;;;999.90;;
2824;SDS011;1420;51.324;12.344;2023-06-04T05:42:24;1095.90;;;999.90;;
2824;SDS011;1420;51.324;12.344;2023-06-04T05:44:51;1057.40;;;977.12;;
2824;SDS011;1420;51.324;12.344;2023-06-04T05:47:18;1073.38;;;993.10;;
2824;SDS011;1420;51.324;12.344;2023-06-04T05:49:45;1071.74;;;988.86;;
2824;SDS011;1420;51.324;12.344;2023-06-04T05:52:13;1122.70;;;999.90;;
2824;SDS011;1420;51.324;12.344;2023-06-04T05:54:40;1078.54;;;994.00;;
2824;SDS011;1420;51.324;12.344;2023-06-04T05:57:07;1137.34;;;999.90;;
2824;SDS011;1420;51.324;12.344;2023-06-04T05:59:34;1126.60;;;999.90;;
2824;SDS011;1420;51.324;12.344;2023-06-04T06:02:02;1073.42;;;986.14;;
2824;SDS011;1420;51.324;12.344;2023-06-04T06:04:29;1090.50;;;999.90;;
2824;SDS011;1420;51.324;12.344;2023-06-04T06:06:57;1090.24;;;999.72;;
2824;SDS011;1420;51.324;12.344;2023-06-04T06:09:24;1058.44;;;977.46;;
2824;SDS011;1420;51.324;12.344;2023-06-04T06:11:51;1045.74;;;968.64;;
2824;SDS011;1420;51.324;12.344;2023-06-04T06:14:18;1047.88;;;971.14;;
2824;SDS011;1420;51.324;12.344;2023-06-04T06:16:46;1024.10;;;949.38;;
2824;SDS011;1420;51.324;12.344;2023-06-04T06:19:14;1052.76;;;976.50;;
2824;SDS011;1420;51.324;12.344;2023-06-04T06:21:41;1029.96;;;953.22;;
2824;SDS011;1420;51.324;12.344;2023-06-04T06:24:08;1079.38;;;997.06;;
2824;SDS011;1420;51.324;12.344;2023-06-04T06:26:35;1109.38;;;999.90;;
2824;SDS011;1420;51.324;12.344;2023-06-04T06:29:03;1101.42;;;999.90;;
2824;SDS011;1420;51.324;12.344;2023-06-04T06:31:31;1093.34;;;999.82;;
2824;SDS011;1420;51.324;12.344;2023-06-04T06:33:58;1042.50;;;966.68;;
2824;SDS011;1420;51.324;12.344;2023-06-04T06:36:25;981.02;;;914.24;;
2824;SDS011;1420;51.324;12.344;2023-06-04T06:38:52;964.58;;;897.52;;
2824;SDS011;1420;51.324;12.344;2023-06-04T06:41:20;1057.90;;;979.20;;
2824;SDS011;1420;51.324;12.344;2023-06-04T06:43:47;1103.78;;;999.90;;
2824;SDS011;1420;51.324;12.344;2023-06-04T06:46:15;1119.10;;;999.90;;
2824;SDS011;1420;51.324;12.344;2023-06-04T06:48:42;1106.26;;;999.90;;
2824;SDS011;1420;51.324;12.344;2023-06-04T06:51:10;1101.04;;;999.90;;
2824;SDS011;1420;51.324;12.344;2023-06-04T06:53:37;1109.96;;;999.90;;
2824;SDS011;1420;51.324;12.344;2023-06-04T06:56:05;1104.44;;;999.90;;
2824;SDS011;1420;51.324;12.344;2023-06-04T06:58:32;1083.80;;;995.60;;
2824;SDS011;1420;51.324;12.344;2023-06-04T07:01:00;1096.38;;;999.90;;
2824;SDS011;1420;51.324;12.344;2023-06-04T07:03:28;1117.86;;;999.90;;
2824;SDS011;1420;51.324;12.344;2023-06-04T07:05:55;1104.76;;;999.90;;
2824;SDS011;1420;51.324;12.344;2023-06-04T07:08:22;1106.10;;;999.90;;
2824;SDS011;1420;51.324;12.344;2023-06-04T07:10:49;1076.78;;;991.42;;
2824;SDS011;1420;51.324;12.344;2023-06-04T07:13:16;1100.50;;;999.64;;
2824;SDS011;1420;51.324;12.344;2023-06-04T07:15:44;1087.98;;;998.34;;
2824;SDS011;1420;51.324;12.344;2023-06-04T07:18:12;1081.54;;;994.12;;
2824;SDS011;1420;51.324;12.344;2023-06-04T07:20:39;1073.78;;;987.86;;
2824;SDS011;1420;51.324;12.344;2023-06-04T07:23:06;1076.40;;;991.50;;
2824;SDS011;1420;51.324;12.344;2023-06-04T07:25:34;1076.60;;;992.02;;
2824;SDS011;1420;51.324;12.344;2023-06-04T07:28:00;1071.66;;;986.76;;
2824;SDS011;1420;51.324;12.344;2023-06-04T07:30:28;1061.74;;;974.02;;
2824;SDS011;1420;51.324;12.344;2023-06-04T07:32:55;1083.62;;;994.34;;
2824;SDS011;1420;51.324;12.344;2023-06-04T07:35:22;1068.12;;;983.56;;
2824;SDS011;1420;51.324;12.344;2023-06-04T07:37:49;1101.50;;;999.90;;
2824;SDS011;1420;51.324;12.344;2023-06-04T07:40:17;1020.54;;;933.26;;
2824;SDS011;1420;51.324;12.344;2023-06-04T07:42:45;1073.76;;;982.94;;
2824;SDS011;1420;51.324;12.344;2023-06-04T07:45:12;1095.82;;;990.18;;
2824;SDS011;1420;51.324;12.344;2023-06-04T07:47:39;1085.64;;;995.84;;
2824;SDS011;1420;51.324;12.344;2023-06-04T07:50:06;1071.44;;;980.54;;
2824;SDS011;1420;51.324;12.344;2023-06-04T07:52:34;1116.72;;;999.90;;
2824;SDS011;1420;51.324;12.344;2023-06-04T07:55:01;466.82;;;438.56;;
2824;SDS011;1420;51.324;12.344;2023-06-04T07:57:29;500.96;;;472.16;;
2824;SDS011;1420;51.324;12.344;2023-06-04T07:59:56;1069.80;;;653.64;;
2824;SDS011;1420;51.324;12.344;2023-06-04T08:02:23;1128.12;;;619.72;;
2824;SDS011;1420;51.324;12.344;2023-06-04T08:04:50;1999.90;;;999.90;;
2824;SDS011;1420;51.324;12.344;2023-06-04T08:07:17;1999.90;;;999.90;;
2824;SDS011;1420;51.324;12.344;2023-06-04T08:09:44;1145.40;;;681.04;;
2824;SDS011;1420;51.324;12.344;2023-06-04T08:12:12;1999.90;;;999.90;;
2824;SDS011;1420;51.324;12.344;2023-06-04T08:14:39;1399.16;;;793.24;;
2824;SDS011;1420;51.324;12.344;2023-06-04T08:17:07;1638.16;;;998.70;;
2824;SDS011;1420;51.324;12.344;2023-06-04T08:19:34;1537.24;;;999.90;;
2824;SDS011;1420;51.324;12.344;2023-06-04T08:22:01;1213.34;;;817.56;;
2824;SDS011;1420;51.324;12.344;2023-06-04T08:24:29;1521.94;;;999.90;;
2824;SDS011;1420;51.324;12.344;2023-06-04T08:26:56;1482.18;;;909.04;;
2824;SDS011;1420;51.324;12.344;2023-06-04T08:29:23;1461.46;;;999.90;;
2824;SDS011;1420;51.324;12.344;2023-06-04T08:31:50;1603.10;;;999.90;;
2824;SDS011;1420;51.324;12.344;2023-06-04T08:34:17;1018.06;;;684.74;;
2824;SDS011;1420;51.324;12.344;2023-06-04T08:36:45;1274.56;;;896.08;;
2824;SDS011;1420;51.324;12.344;2023-06-04T08:39:12;1346.92;;;947.86;;
2824;SDS011;1420;51.324;12.344;2023-06-04T08:41:42;1362.66;;;881.06;;
2824;SDS011;1420;51.324;12.344;2023-06-04T08:44:11;1424.82;;;999.90;;
2824;SDS011;1420;51.324;12.344;2023-06-04T08:46:39;969.50;;;640.80;;
2824;SDS011;1420;51.324;12.344;2023-06-04T08:49:06;1720.02;;;931.58;;
2824;SDS011;1420;51.324;12.344;2023-06-04T08:51:34;1152.24;;;792.30;;
2824;SDS011;1420;51.324;12.344;2023-06-04T08:54:01;1212.20;;;877.78;;
2824;SDS011;1420;51.324;12.344;2023-06-04T08:56:28;1966.66;;;999.90;;
2824;SDS011;1420;51.324;12.344;2023-06-04T08:58:57;1681.80;;;999.90;;
2824;SDS011;1420;51.324;12.344;2023-06-04T09:01:24;1661.86;;;999.90;;
2824;SDS011;1420;51.324;12.344;2023-06-04T09:03:51;1808.84;;;999.90;;
2824;SDS011;1420;51.324;12.344;2023-06-04T09:06:18;1908.70;;;999.90;;
2824;SDS011;1420;51.324;12.344;2023-06-04T09:08:46;1931.80;;;999.90;;
2824;SDS011;1420;51.324;12.344;2023-06-04T09:11:13;1999.90;;;999.90;;
2824;SDS011;1420;51.324;12.344;2023-06-04T09:13:40;1999.90;;;999.90;;
2824;SDS011;1420;51.324;12.344;2023-06-04T09:16:07;1842.30;;;974.34;;
2824;SDS011;1420;51.324;12.344;2023-06-04T09:18:35;1805.92;;;999.90;;
2824;SDS011;1420;51.324;12.344;2023-06-04T09:21:04;1998.68;;;999.90;;
2824;SDS011;1420;51.324;12.344;2023-06-04T09:23:34;1982.24;;;999.90;;
2824;SDS011;1420;51.324;12.344;2023-06-04T09:26:07;1956.42;;;999.90;;
2824;SDS011;1420;51.324;12.344;2023-06-04T09:28:34;1999.90;;;999.90;;
2824;SDS011;1420;51.324;12.344;2023-06-04T09:31:01;1999.90;;;999.90;;
2824;SDS011;1420;51.324;12.344;2023-06-04T09:33:28;1884.30;;;995.98;;
2824;SDS011;1420;51.324;12.344;2023-06-04T09:35:56;1816.52;;;999.90;;
2824;SDS011;1420;51.324;12.344;2023-06-04T09:38:31;1828.70;;;999.90;;
2824;SDS011;1420;51.324;12.344;2023-06-04T09:41:14;1935.28;;;999.90;;
2824;SDS011;1420;51.324;12.344;2023-06-04T09:43:41;1687.38;;;981.76;;
2824;SDS011;1420;51.324;12.344;2023-06-04T09:46:09;1956.88;;;999.90;;
2824;SDS011;1420;51.324;12.344;2023-06-04T09:48:37;1778.58;;;999.90;;
2824;SDS011;1420;51.324;12.344;2023-06-04T09:51:10;1999.90;;;999.90;;
2824;SDS011;1420;51.324;12.344;2023-06-04T09:53:37;1999.90;;;999.90;;
2824;SDS011;1420;51.324;12.344;2023-06-04T09:56:04;1999.90;;;999.90;;
2824;SDS011;1420;51.324;12.344;2023-06-04T09:58:35;1999.90;;;999.90;;
2824;SDS011;1420;51.324;12.344;2023-06-04T10:01:04;1916.24;;;999.90;;
2824;SDS011;1420;51.324;12.344;2023-06-04T10:03:31;1999.90;;;999.90;;
2824;SDS011;1420;51.324;12.344;2023-06-04T10:06:02;1839.00;;;986.90;;
2824;SDS011;1420;51.324;12.344;2023-06-04T10:08:27;1627.54;;;961.26;;
2824;SDS011;1420;51.324;12.344;2023-06-04T10:10:55;1728.70;;;999.90;;
2824;SDS011;1420;51.324;12.344;2023-06-04T10:13:23;1999.90;;;999.90;;
2824;SDS011;1420;51.324;12.344;2023-06-04T10:15:50;1999.90;;;999.90;;
2824;SDS011;1420;51.324;12.344;2023-06-04T10:18:17;1999.90;;;999.90;;
2824;SDS011;1420;51.324;12.344;2023-06-04T10:20:44;1999.90;;;999.90;;
2824;SDS011;1420;51.324;12.344;2023-06-04T10:23:12;1977.46;;;999.90;;
2824;SDS011;1420;51.324;12.344;2023-06-04T10:25:39;1999.90;;;999.90;;
2824;SDS011;1420;51.324;12.344;2023-06-04T10:28:06;1999.90;;;999.90;;
2824;SDS011;1420;51.324;12.344;2023-06-04T10:30:34;1999.90;;;999.90;;
2824;SDS011;1420;51.324;12.344;2023-06-04T10:33:01;1999.90;;;999.90;;
2824;SDS011;1420;51.324;12.344;2023-06-04T10:35:31;1999.90;;;999.90;;
2824;SDS011;1420;51.324;12.344;2023-06-04T10:38:04;1999.90;;;999.90;;
2824;SDS011;1420;51.324;12.344;2023-06-04T10:40:38;1406.74;;;659.68;;
2824;SDS011;1420;51.324;12.344;2023-06-04T10:43:06;1820.24;;;985.46;;
2824;SDS011;1420;51.324;12.344;2023-06-04T10:45:34;1985.04;;;999.90;;
2824;SDS011;1420;51.324;12.344;2023-06-04T10:48:02;1794.86;;;998.82;;
2824;SDS011;1420;51.324;12.344;2023-06-04T10:50:29;1999.90;;;999.90;;
2824;SDS011;1420;51.324;12.344;2023-06-04T10:52:56;1999.90;;;999.90;;
2824;SDS011;1420;51.324;12.344;2023-06-04T10:55:24;1939.08;;;999.90;;
2824;SDS011;1420;51.324;12.344;2023-06-04T10:57:53;1999.90;;;999.90;;
2824;SDS011;1420;51.324;12.344;2023-06-04T11:00:20;1971.84;;;999.90;;
2824;SDS011;1420;51.324;12.344;2023-06-04T11:02:55;1791.34;;;999.90;;
2824;SDS011;1420;51.324;12.344;2023-06-04T11:05:22;1394.92;;;776.46;;
2824;SDS011;1420;51.324;12.344;2023-06-04T11:07:49;1809.86;;;975.26;;
2824;SDS011;1420;51.324;12.344;2023-06-04T11:10:17;1999.90;;;999.90;;
2824;SDS011;1420;51.324;12.344;2023-06-04T11:12:45;1722.14;;;907.92;;
2824;SDS011;1420;51.324;12.344;2023-06-04T11:15:13;1253.96;;;760.38;;
2824;SDS011;1420;51.324;12.344;2023-06-04T11:20:16;1738.18;;;888.46;;
2824;SDS011;1420;51.324;12.344;2023-06-04T11:22:43;873.12;;;491.16;;
2824;SDS011;1420;51.324;12.344;2023-06-04T11:25:10;1999.90;;;999.90;;
2824;SDS011;1420;51.324;12.344;2023-06-04T11:27:37;1239.96;;;608.62;;
2824;SDS011;1420;51.324;12.344;2023-06-04T11:30:06;1999.90;;;999.90;;
2824;SDS011;1420;51.324;12.344;2023-06-04T11:32:34;1999.90;;;999.90;;
2824;SDS011;1420;51.324;12.344;2023-06-04T11:35:03;1999.90;;;999.90;;
2824;SDS011;1420;51.324;12.344;2023-06-04T11:37:30;1999.90;;;999.90;;
2824;SDS011;1420;51.324;12.344;2023-06-04T11:39:58;1999.90;;;999.90;;
2824;SDS011;1420;51.324;12.344;2023-06-04T11:42:26;1999.90;;;999.90;;
2824;SDS011;1420;51.324;12.344;2023-06-04T11:44:55;1999.90;;;999.90;;
2824;SDS011;1420;51.324;12.344;2023-06-04T11:47:23;1999.90;;;999.90;;
2824;SDS011;1420;51.324;12.344;2023-06-04T11:49:55;1999.90;;;999.90;;
2824;SDS011;1420;51.324;12.344;2023-06-04T11:52:23;1999.90;;;999.90;;
2824;SDS011;1420;51.324;12.344;2023-06-04T11:54:50;1999.90;;;999.90;;
2824;SDS011;1420;51.324;12.344;2023-06-04T11:57:17;1999.90;;;999.90;;
2824;SDS011;1420;51.324;12.344;2023-06-04T11:59:44;1999.90;;;999.90;;
2824;SDS011;1420;51.324;12.344;2023-06-04T12:02:11;1999.90;;;999.90;;
2824;SDS011;1420;51.324;12.344;2023-06-04T12:04:39;1999.90;;;999.90;;
2824;SDS011;1420;51.324;12.344;2023-06-04T12:07:06;1999.90;;;999.90;;
2824;SDS011;1420;51.324;12.344;2023-06-04T12:09:33;1999.90;;;999.90;;
2824;SDS011;1420;51.324;12.344;2023-06-04T12:12:02;1999.90;;;999.90;;
2824;SDS011;1420;51.324;12.344;2023-06-04T12:14:29;1999.90;;;999.90;;
2824;SDS011;1420;51.324;12.344;2023-06-04T12:17:00;1999.90;;;999.90;;
2824;SDS011;1420;51.324;12.344;2023-06-04T12:19:27;1999.90;;;999.90;;
2824;SDS011;1420;51.324;12.344;2023-06-04T12:21:59;1999.90;;;999.90;;
2824;SDS011;1420;51.324;12.344;2023-06-04T12:24:27;1999.90;;;999.90;;
2824;SDS011;1420;51.324;12.344;2023-06-04T12:27:02;1999.90;;;999.90;;
2824;SDS011;1420;51.324;12.344;2023-06-04T12:29:28;1999.90;;;999.90;;
2824;SDS011;1420;51.324;12.344;2023-06-04T12:32:03;1999.90;;;999.90;;
2824;SDS011;1420;51.324;12.344;2023-06-04T12:34:29;1999.90;;;999.90;;
2824;SDS011;1420;51.324;12.344;2023-06-04T12:36:57;1999.90;;;999.90;;
2824;SDS011;1420;51.324;12.344;2023-06-04T12:39:24;1999.90;;;999.90;;
2824;SDS011;1420;51.324;12.344;2023-06-04T12:41:51;1999.90;;;999.90;;
2824;SDS011;1420;51.324;12.344;2023-06-04T12:44:18;1999.90;;;999.90;;
2824;SDS011;1420;51.324;12.344;2023-06-04T12:46:46;1999.90;;;999.90;;
2824;SDS011;1420;51.324;12.344;2023-06-04T12:49:13;1999.90;;;999.90;;
2824;SDS011;1420;51.324;12.344;2023-06-04T12:51:41;1999.90;;;999.90;;
2824;SDS011;1420;51.324;12.344;2023-06-04T12:54:08;1999.90;;;999.90;;
2824;SDS011;1420;51.324;12.344;2023-06-04T12:56:35;1999.90;;;999.90;;
2824;SDS011;1420;51.324;12.344;2023-06-04T12:59:02;1999.90;;;999.90;;
2824;SDS011;1420;51.324;12.344;2023-06-04T13:01:29;1999.90;;;999.90;;
2824;SDS011;1420;51.324;12.344;2023-06-04T13:03:57;1999.90;;;999.90;;
2824;SDS011;1420;51.324;12.344;2023-06-04T13:06:25;1999.90;;;999.90;;
2824;SDS011;1420;51.324;12.344;2023-06-04T13:08:52;1999.90;;;999.90;;
2824;SDS011;1420;51.324;12.344;2023-06-04T13:11:24;1999.90;;;999.90;;
2824;SDS011;1420;51.324;12.344;2023-06-04T13:13:51;1999.90;;;999.90;;
2824;SDS011;1420;51.324;12.344;2023-06-04T13:16:19;1999.90;;;999.90;;
2824;SDS011;1420;51.324;12.344;2023-06-04T13:18:46;1999.90;;;999.90;;
2824;SDS011;1420;51.324;12.344;2023-06-04T13:21:13;1999.90;;;999.90;;
2824;SDS011;1420;51.324;12.344;2023-06-04T13:26:14;1999.90;;;999.90;;
2824;SDS011;1420;51.324;12.344;2023-06-04T13:28:56;1999.90;;;999.90;;
2824;SDS011;1420;51.324;12.344;2023-06-04T13:31:29;1999.90;;;999.90;;
2824;SDS011;1420;51.324;12.344;2023-06-04T13:33:56;1999.90;;;999.90;;
2824;SDS011;1420;51.324;12.344;2023-06-04T13:36:23;1999.90;;;999.90;;
2824;SDS011;1420;51.324;12.344;2023-06-04T13:38:50;1999.90;;;999.90;;
2824;SDS011;1420;51.324;12.344;2023-06-04T13:41:18;1999.90;;;999.90;;
2824;SDS011;1420;51.324;12.344;2023-06-04T13:43:45;1999.90;;;999.90;;
2824;SDS011;1420;51.324;12.344;2023-06-04T13:46:12;1999.90;;;999.90;;
2824;SDS011;1420;51.324;12.344;2023-06-04T13:48:39;1999.90;;;999.90;;
2824;SDS011;1420;51.324;12.344;2023-06-04T13:51:06;1999.90;;;999.90;;
2824;SDS011;1420;51.324;12.344;2023-06-04T13:53:34;1999.90;;;999.90;;
2824;SDS011;1420;51.324;12.344;2023-06-04T13:56:01;1999.90;;;999.90;;
2824;SDS011;1420;51.324;12.344;2023-06-04T13:58:29;1999.90;;;999.90;;
2824;SDS011;1420;51.324;12.344;2023-06-04T14:00:56;1999.90;;;999.90;;
2824;SDS011;1420;51.324;12.344;2023-06-04T14:03:23;1999.90;;;999.90;;
2824;SDS011;1420;51.324;12.344;2023-06-04T14:05:51;1999.90;;;999.90;;
2824;SDS011;1420;51.324;12.344;2023-06-04T14:08:18;1999.90;;;999.90;;
2824;SDS011;1420;51.324;12.344;2023-06-04T14:10:45;1999.90;;;999.90;;